createdAt,value
2018-07-27T00:01:43.561Z,98832.02
2018-07-27T00:04:11.808Z,98831.38
2018-07-27T00:06:41.845Z,98828.20
2018-07-27T00:09:11.865Z,98826.47
2018-07-27T00:11:40.254Z,98821.79
2018-07-27T00:14:08.464Z,98822.71
2018-07-27T00:16:36.684Z,98816.38
2018-07-27T00:19:05.395Z,98823.38
2018-07-27T00:21:33.843Z,98821.97
2018-07-27T00:24:02.086Z,98816.11
2018-07-27T00:26:30.599Z,98813.00
2018-07-27T00:28:58.978Z,98815.11
2018-07-27T00:31:27.317Z,98814.86
2018-07-27T00:33:56.143Z,98819.92
2018-07-27T00:36:25.186Z,98817.09
2018-07-27T00:38:53.454Z,98813.98
2018-07-27T00:41:21.713Z,98816.80
2018-07-27T00:43:50.041Z,98817.11
2018-07-27T00:46:18.264Z,98820.05
2018-07-27T00:48:47.564Z,98813.20
2018-07-27T00:51:15.821Z,98811.53
2018-07-27T00:53:44.989Z,98811.38
2018-07-27T00:56:13.216Z,98811.55
2018-07-27T00:58:41.478Z,98803.78
2018-07-27T01:01:09.765Z,98803.69
2018-07-27T01:03:38.086Z,98808.67
2018-07-27T01:06:08.105Z,98804.77
2018-07-27T01:08:36.393Z,98811.41
2018-07-27T01:11:04.937Z,98803.23
2018-07-27T01:13:33.241Z,98803.09
2018-07-27T01:16:01.565Z,98804.70
2018-07-27T01:18:30.642Z,98802.75
2018-07-27T01:20:58.869Z,98798.20
2018-07-27T01:23:33.729Z,98803.94
2018-07-27T01:26:02.831Z,98796.34
2018-07-27T01:28:32.727Z,98798.78
2018-07-27T01:31:01.004Z,98794.59
2018-07-27T01:33:29.261Z,98793.62
2018-07-27T01:35:57.561Z,98792.51
2018-07-27T01:38:25.801Z,98784.95
2018-07-27T01:40:54.097Z,98787.55
2018-07-27T01:43:23.130Z,98789.26
2018-07-27T01:45:51.494Z,98788.81
2018-07-27T01:48:20.544Z,98786.42
2018-07-27T01:50:48.888Z,98785.27
2018-07-27T01:53:18.123Z,98783.30
2018-07-27T01:55:47.468Z,98784.39
2018-07-27T01:58:15.706Z,98778.67
2018-07-27T02:00:43.945Z,98778.98
2018-07-27T02:03:12.240Z,98777.22
2018-07-27T02:05:40.477Z,98777.53
2018-07-27T02:08:08.817Z,98781.31
2018-07-27T02:10:37.080Z,98783.16
2018-07-27T02:13:05.360Z,98782.56
2018-07-27T02:15:36.106Z,98774.47
2018-07-27T02:18:04.378Z,98777.28
2018-07-27T02:20:32.773Z,98770.36
2018-07-27T02:23:01.017Z,98773.55
2018-07-27T02:25:29.224Z,98775.22
2018-07-27T02:27:57.513Z,98769.20
2018-07-27T02:30:25.815Z,98781.48
2018-07-27T02:32:54.085Z,98786.86
2018-07-27T02:35:22.628Z,98772.65
2018-07-27T02:37:50.914Z,98773.06
2018-07-27T02:40:19.231Z,98778.38
2018-07-27T02:42:48.738Z,98775.19
2018-07-27T02:45:16.957Z,98775.20
2018-07-27T02:47:48.850Z,98772.58
2018-07-27T02:50:17.613Z,98769.62
2018-07-27T02:52:46.125Z,98767.06
2018-07-27T02:55:15.054Z,98771.09
2018-07-27T02:57:43.293Z,98766.95
2018-07-27T03:00:11.512Z,98770.73
2018-07-27T03:02:39.784Z,98758.98
2018-07-27T03:05:09.018Z,98767.00
2018-07-27T03:07:37.490Z,98763.13
2018-07-27T03:10:05.804Z,98763.06
2018-07-27T03:12:34.068Z,98760.82
2018-07-27T03:15:02.965Z,98756.69
2018-07-27T03:17:31.224Z,98753.50
2018-07-27T03:19:59.438Z,98755.30
2018-07-27T03:22:28.517Z,98751.05
2018-07-27T03:24:56.773Z,98746.14
2018-07-27T03:27:25.730Z,98750.75
2018-07-27T03:29:54.000Z,98756.58
2018-07-27T03:32:22.839Z,98751.03
2018-07-27T03:34:51.125Z,98750.38
2018-07-27T03:37:19.375Z,98748.26
2018-07-27T03:39:47.690Z,98748.75
2018-07-27T03:42:16.038Z,98753.98
2018-07-27T03:44:44.323Z,98754.97
2018-07-27T03:47:12.588Z,98755.04
2018-07-27T03:49:40.907Z,98755.84
2018-07-27T03:52:09.222Z,98757.27
2018-07-27T03:54:37.512Z,98753.64
2018-07-27T03:57:05.826Z,98757.86
2018-07-27T03:59:34.118Z,98755.15
2018-07-27T04:02:02.488Z,98759.13
2018-07-27T04:04:30.806Z,98755.31
2018-07-27T04:06:59.223Z,98757.81
2018-07-27T04:09:27.526Z,98755.76
2018-07-27T04:11:55.798Z,98760.25
2018-07-27T04:14:24.114Z,98757.36
2018-07-27T04:16:52.666Z,98757.20
2018-07-27T04:19:21.027Z,98754.72
2018-07-27T04:21:49.286Z,98759.52
2018-07-27T04:24:17.583Z,98767.06
2018-07-27T04:26:45.876Z,98768.59
2018-07-27T04:29:14.202Z,98763.78
2018-07-27T04:31:42.487Z,98765.59
2018-07-27T04:34:10.784Z,98757.69
2018-07-27T04:36:39.083Z,98774.47
2018-07-27T04:39:09.183Z,98764.50
2018-07-27T04:50:39.824Z,98765.61
2018-07-27T04:53:08.118Z,98763.73
2018-07-27T04:55:36.381Z,98763.09
2018-07-27T04:58:05.037Z,98774.45
2018-07-27T05:00:33.391Z,98770.19
2018-07-27T05:03:01.685Z,98770.27
2018-07-27T05:05:30.081Z,98769.88
2018-07-27T05:07:58.368Z,98772.05
2018-07-27T05:10:32.165Z,98769.22
2018-07-27T05:13:00.562Z,98769.55
2018-07-27T05:15:28.863Z,98769.33
2018-07-27T05:17:57.126Z,98769.88
2018-07-27T05:20:25.447Z,98765.78
2018-07-27T05:22:53.724Z,98760.63
2018-07-27T05:25:22.055Z,98764.86
2018-07-27T05:27:50.406Z,98763.83
2018-07-27T05:30:18.731Z,98765.54
2018-07-27T05:32:47.217Z,98767.11
2018-07-27T05:35:15.567Z,98766.24
2018-07-27T05:37:43.933Z,98757.81
2018-07-27T05:40:12.224Z,98758.77
2018-07-27T05:42:44.199Z,98762.02
2018-07-27T05:45:13.044Z,98759.72
2018-07-27T05:47:41.331Z,98755.09
2018-07-27T05:50:09.790Z,98752.61
2018-07-27T05:52:38.155Z,98748.80
2018-07-27T05:55:06.632Z,98753.64
2018-07-27T05:57:35.126Z,98751.31
2018-07-27T06:00:03.464Z,98746.08
2018-07-27T06:02:32.031Z,98748.67
2018-07-27T06:05:01.509Z,98742.38
2018-07-27T06:07:30.025Z,98742.68
2018-07-27T06:09:58.376Z,98741.63
2018-07-27T06:12:26.773Z,98742.98
2018-07-27T06:14:55.294Z,98747.70
2018-07-27T06:17:23.823Z,98740.79
2018-07-27T06:19:52.398Z,98743.63
2018-07-27T06:22:20.893Z,98741.86
2018-07-27T06:28:26.147Z,98747.83
2018-07-27T06:30:54.564Z,98754.35
2018-07-27T06:33:23.287Z,98752.46
2018-07-27T06:35:51.620Z,98748.48
2018-07-27T06:38:19.951Z,98755.34
2018-07-27T06:40:48.285Z,98750.14
2018-07-27T06:43:16.616Z,98759.23
2018-07-27T06:45:44.908Z,98755.44
2018-07-27T06:48:18.878Z,98753.34
2018-07-27T06:50:48.588Z,98750.92
2018-07-27T06:53:16.898Z,98755.34
2018-07-27T06:55:45.766Z,98756.91
2018-07-27T06:58:14.462Z,98754.41
2018-07-27T07:00:42.796Z,98746.55
2018-07-27T07:03:11.281Z,98752.28
2018-07-27T07:05:39.575Z,98744.77
2018-07-27T07:08:07.839Z,98746.06
2018-07-27T07:10:36.156Z,98746.97
2018-07-27T07:13:04.425Z,98742.23
2018-07-27T07:15:32.812Z,98745.73
2018-07-27T07:18:01.100Z,98744.61
2018-07-27T07:20:29.409Z,98746.79
2018-07-27T07:22:57.761Z,98737.91
2018-07-27T07:25:26.186Z,98737.64
2018-07-27T07:27:54.433Z,98735.79
2018-07-27T07:30:22.737Z,98734.67
2018-07-27T07:32:51.021Z,98728.20
2018-07-27T07:35:19.323Z,98726.11
2018-07-27T07:37:47.600Z,98727.30
2018-07-27T07:40:15.902Z,98724.95
2018-07-27T07:42:44.220Z,98722.42
2018-07-27T07:45:12.598Z,98722.66
2018-07-27T07:47:40.865Z,98715.02
2018-07-27T07:50:09.158Z,98718.89
2018-07-27T07:52:37.442Z,98718.36
2018-07-27T07:55:05.759Z,98718.78
2018-07-27T07:57:34.028Z,98711.38
2018-07-27T08:00:02.315Z,98715.78
2018-07-27T08:02:30.616Z,98715.43
2018-07-27T08:04:58.898Z,98718.57
2018-07-27T08:07:27.203Z,98715.67
2018-07-27T08:09:55.511Z,98711.13
2018-07-27T08:12:23.805Z,98708.55
2018-07-27T08:14:52.118Z,98703.05
2018-07-27T08:17:20.395Z,98695.47
2018-07-27T08:19:48.684Z,98700.41
2018-07-27T08:22:17.006Z,98695.89
2018-07-27T08:24:45.306Z,98697.27
2018-07-27T08:27:13.567Z,98689.80
2018-07-27T08:29:44.836Z,98689.54
2018-07-27T08:32:13.371Z,98684.56
2018-07-27T08:34:41.879Z,98685.02
2018-07-27T08:37:10.468Z,98685.44
2018-07-27T08:39:40.892Z,98676.58
2018-07-27T08:42:09.223Z,98671.91
2018-07-27T08:44:39.573Z,98679.45
2018-07-27T08:47:07.971Z,98678.52
2018-07-27T08:49:36.289Z,98664.73
2018-07-27T08:52:04.663Z,98667.89
2018-07-27T08:54:32.995Z,98664.05
2018-07-27T08:57:01.335Z,98667.54
2018-07-27T08:59:29.640Z,98664.11
2018-07-27T09:01:57.984Z,98667.87
2018-07-27T09:04:26.284Z,98664.33
2018-07-27T09:06:54.633Z,98661.25
2018-07-27T09:09:22.915Z,98658.36
2018-07-27T09:11:51.194Z,98662.30
2018-07-27T09:14:19.459Z,98646.67
2018-07-27T09:16:47.779Z,98657.56
2018-07-27T09:19:16.069Z,98648.98
2018-07-27T09:21:44.644Z,98655.62
2018-07-27T09:24:13.010Z,98653.50
2018-07-27T09:26:41.302Z,98653.64
2018-07-27T09:29:09.551Z,98646.17
2018-07-27T09:31:38.088Z,98654.11
2018-07-27T09:34:06.413Z,98646.92
2018-07-27T09:36:34.742Z,98646.91
2018-07-27T09:39:03.059Z,98640.27
2018-07-27T09:41:31.373Z,98640.70
2018-07-27T09:43:59.703Z,98642.92
2018-07-27T09:46:28.080Z,98633.20
2018-07-27T09:48:56.385Z,98635.86
2018-07-27T09:51:25.374Z,98636.28
2018-07-27T09:53:53.746Z,98628.36
2018-07-27T09:56:22.104Z,98626.78
2018-07-27T09:58:50.410Z,98633.73
2018-07-27T10:01:27.440Z,98619.70
2018-07-27T10:03:56.050Z,98623.44
2018-07-27T10:06:24.370Z,98623.57
2018-07-27T10:08:52.910Z,98623.92
2018-07-27T10:11:21.712Z,98624.27
2018-07-27T10:13:50.073Z,98611.44
2018-07-27T10:16:18.386Z,98608.44
2018-07-27T10:18:47.156Z,98612.36
2018-07-27T10:21:15.517Z,98606.06
2018-07-27T10:23:43.924Z,98603.49
2018-07-27T10:26:12.941Z,98599.95
2018-07-27T10:28:41.306Z,98603.72
2018-07-27T10:31:09.639Z,98602.83
2018-07-27T10:33:37.957Z,98603.17
2018-07-27T10:36:06.445Z,98596.84
2018-07-27T10:38:34.806Z,98596.23
2018-07-27T10:41:03.143Z,98596.06
2018-07-27T10:43:31.459Z,98585.00
2018-07-27T10:45:59.769Z,98591.44
2018-07-27T10:48:28.137Z,98582.38
2018-07-27T10:50:56.491Z,98591.02
2018-07-27T10:53:24.798Z,98579.31
2018-07-27T10:55:53.135Z,98569.67
2018-07-27T10:58:21.424Z,98578.80
2018-07-27T11:00:49.762Z,98572.11
2018-07-27T11:03:18.066Z,98567.81
2018-07-27T11:05:46.361Z,98571.64
2018-07-27T11:08:14.695Z,98567.47
2018-07-27T11:10:43.106Z,98569.08
2018-07-27T11:13:11.488Z,98569.48
2018-07-27T11:15:39.797Z,98563.84
2018-07-27T11:18:08.106Z,98562.00
2018-07-27T11:20:36.399Z,98551.55
2018-07-27T11:23:04.727Z,98554.03
2018-07-27T11:25:33.265Z,98549.66
2018-07-27T11:28:01.550Z,98548.28
2018-07-27T11:30:30.329Z,98547.43
2018-07-27T11:32:58.703Z,98544.67
2018-07-27T11:35:26.985Z,98541.64
2018-07-27T11:37:55.291Z,98532.02
2018-07-27T11:40:23.592Z,98533.08
2018-07-27T11:42:52.153Z,98533.31
2018-07-27T11:45:20.469Z,98533.33
2018-07-27T11:47:49.055Z,98523.64
2018-07-27T11:50:17.335Z,98531.86
2018-07-27T11:52:45.648Z,98528.83
2018-07-27T11:55:13.947Z,98525.43
2018-07-27T11:57:42.447Z,98524.73
2018-07-27T12:00:10.727Z,98521.36
2018-07-27T12:02:39.038Z,98514.63
2018-07-27T12:05:07.532Z,98506.69
2018-07-27T12:07:36.307Z,98502.27
2018-07-27T12:10:04.851Z,98502.48
2018-07-27T12:12:33.330Z,98502.48
2018-07-27T12:15:01.962Z,98500.70
2018-07-27T12:17:30.102Z,98494.38
2018-07-27T12:19:58.382Z,98494.97
2018-07-27T12:22:26.806Z,98489.80
2018-07-27T12:24:55.274Z,98500.02
2018-07-27T12:27:23.627Z,98492.89
2018-07-27T12:29:51.935Z,98488.50
2018-07-27T12:32:20.421Z,98491.80
2018-07-27T12:34:48.720Z,98488.86
2018-07-27T12:37:17.043Z,98484.62
2018-07-27T12:39:45.330Z,98483.97
2018-07-27T12:42:13.650Z,98478.45
2018-07-27T12:44:42.156Z,98480.25
2018-07-27T12:47:10.521Z,98475.35
2018-07-27T12:49:38.805Z,98471.55
2018-07-27T12:52:07.115Z,98473.52
2018-07-27T12:54:35.393Z,98476.53
2018-07-27T12:57:03.705Z,98468.45
2018-07-27T12:59:32.171Z,98469.89
2018-07-27T13:02:00.493Z,98465.77
2018-07-27T13:04:28.796Z,98472.61
2018-07-27T13:06:57.098Z,98463.84
2018-07-27T13:09:25.579Z,98463.30
2018-07-27T13:11:54.019Z,98463.66
2018-07-27T13:14:22.574Z,98455.36
2018-07-27T13:16:50.860Z,98457.02
2018-07-27T13:19:19.193Z,98463.55
2018-07-27T13:21:47.518Z,98450.95
2018-07-27T13:24:15.953Z,98442.46
2018-07-27T13:26:44.270Z,98443.71
2018-07-27T13:29:12.852Z,98434.61
2018-07-27T13:34:39.238Z,98426.81
2018-07-27T13:37:08.086Z,98421.78
2018-07-27T13:39:36.966Z,98413.45
2018-07-27T13:42:06.141Z,98407.75
2018-07-27T13:44:36.223Z,98415.05
2018-07-27T13:47:05.332Z,98407.28
2018-07-27T13:49:33.670Z,98402.11
2018-07-27T13:52:02.203Z,98398.12
2018-07-27T13:54:31.612Z,98398.96
2018-07-27T13:56:59.938Z,98398.05
2018-07-27T13:59:28.511Z,98398.94
2018-07-27T14:01:56.922Z,98400.41
2018-07-27T14:04:25.563Z,98391.96
2018-07-27T14:06:55.147Z,98386.75
2018-07-27T14:09:23.588Z,98378.92
2018-07-27T14:11:52.050Z,98387.34
2018-07-27T14:14:20.473Z,98385.19
2018-07-27T14:16:48.823Z,98377.97
2018-07-27T14:19:18.133Z,98376.89
2018-07-27T14:21:46.485Z,98376.59
2018-07-27T14:24:15.463Z,98373.82
2018-07-27T14:26:43.958Z,98374.72
2018-07-27T14:29:12.385Z,98367.36
2018-07-27T14:31:40.715Z,98363.32
2018-07-27T14:34:09.314Z,98365.88
2018-07-27T14:36:37.991Z,98360.95
2018-07-27T14:39:12.250Z,98361.12
2018-07-27T14:41:41.043Z,98358.88
2018-07-27T14:44:09.732Z,98354.67
2018-07-27T14:46:38.444Z,98346.73
2018-07-27T14:49:13.504Z,98345.41
2018-07-27T14:51:42.439Z,98341.38
2018-07-27T14:54:12.215Z,98336.83
2018-07-27T14:56:41.433Z,98332.04
2018-07-27T14:59:10.352Z,98327.85
2018-07-27T15:01:39.386Z,98324.90
2018-07-27T15:04:08.166Z,98317.64
2018-07-27T15:06:36.487Z,98320.63
2018-07-27T15:09:08.086Z,98320.30
2018-07-27T15:11:36.591Z,98319.33
2018-07-27T15:14:05.186Z,98321.02
2018-07-27T15:16:33.711Z,98327.02
2018-07-27T15:19:02.329Z,98324.02
2018-07-27T15:21:30.805Z,98326.87
2018-07-27T15:23:59.396Z,98325.66
2018-07-27T15:26:27.817Z,98327.69
2018-07-27T15:28:56.343Z,98320.06
2018-07-27T15:31:24.864Z,98320.02
2018-07-27T15:33:53.325Z,98322.78
2018-07-27T15:36:21.613Z,98317.98
2018-07-27T15:38:49.945Z,98316.52
2018-07-27T15:41:18.428Z,98322.38
2018-07-27T15:43:46.879Z,98313.84
2018-07-27T15:46:15.363Z,98310.28
2018-07-27T15:48:43.842Z,98321.41
2018-07-27T15:51:12.421Z,98321.19
2018-07-27T15:53:40.951Z,98319.77
2018-07-27T15:56:09.501Z,98330.93
2018-07-27T15:58:37.812Z,98331.73
2018-07-27T16:01:06.324Z,98331.20
2018-07-27T16:03:34.851Z,98323.21
2018-07-27T16:06:03.355Z,98321.30
2018-07-27T16:08:32.288Z,98320.80
2018-07-27T16:11:00.659Z,98319.95
2018-07-27T16:15:49.162Z,98313.91
2018-07-27T16:18:17.490Z,98319.34
2018-07-27T16:20:46.136Z,98325.84
2018-07-27T16:23:14.993Z,98340.84
2018-07-27T16:25:43.326Z,98325.41
2018-07-27T16:28:11.761Z,98329.02
2018-07-27T16:30:40.362Z,98327.97
2018-07-27T16:33:08.764Z,98330.93
2018-07-27T16:35:37.256Z,98327.94
2018-07-27T16:46:52.787Z,98336.12
2018-07-27T16:53:01.012Z,98338.57
2018-07-27T16:55:52.374Z,98346.59
2018-07-27T16:58:59.932Z,98341.86
2018-07-27T17:01:29.564Z,98348.20
2018-07-27T17:03:57.914Z,98350.59
2018-07-27T17:06:26.892Z,98349.20
2018-07-27T17:08:55.986Z,98344.78
2018-07-27T17:11:24.824Z,98347.29
2018-07-27T17:13:53.689Z,98359.80
2018-07-27T17:16:22.654Z,98365.05
2018-07-27T17:18:51.524Z,98354.87
2018-07-27T17:21:20.220Z,98360.70
2018-07-27T17:23:49.107Z,98363.28
2018-07-27T17:26:17.910Z,98367.23
2018-07-27T17:28:46.965Z,98355.41
2018-07-27T17:31:26.010Z,98365.58
2018-07-27T17:33:55.011Z,98364.17
2018-07-27T17:36:23.652Z,98372.70
2018-07-27T17:38:52.293Z,98365.28
2018-07-27T17:41:21.003Z,98362.81
2018-07-27T17:43:49.648Z,98368.30
2018-07-27T17:46:18.391Z,98360.31
2018-07-27T17:48:46.983Z,98366.11
2018-07-27T17:51:15.477Z,98368.02
2018-07-27T17:54:03.874Z,98362.75
2018-07-27T17:56:50.887Z,98364.61
2018-07-27T17:59:38.153Z,98364.48
2018-07-27T18:08:14.192Z,98365.40
2018-07-27T18:13:57.677Z,98358.26
2018-07-27T18:16:53.245Z,98355.13
2018-07-27T18:22:53.616Z,98359.69
2018-07-27T18:25:34.559Z,98354.64
2018-07-27T18:28:27.923Z,98358.59
2018-07-27T18:31:13.447Z,98356.42
2018-07-27T18:33:42.057Z,98354.61
2018-07-27T18:36:10.739Z,98353.80
2018-07-27T18:38:53.612Z,98349.80
2018-07-27T18:41:49.076Z,98355.14
2018-07-27T18:44:18.716Z,98355.10
2018-07-27T18:46:47.021Z,98346.50
2018-07-27T18:49:15.374Z,98349.19
2018-07-27T18:51:43.963Z,98352.55
2018-07-27T18:54:12.254Z,98348.23
2018-07-27T18:56:40.683Z,98353.64
2018-07-27T18:59:09.042Z,98350.89
2018-07-27T19:01:37.495Z,98351.30
2018-07-27T19:04:05.875Z,98357.70
2018-07-27T19:06:34.185Z,98360.58
2018-07-27T19:09:02.538Z,98356.23
2018-07-27T19:11:30.842Z,98355.94
2018-07-27T19:13:59.155Z,98348.80
2018-07-27T19:16:27.585Z,98349.27
2018-07-27T19:18:55.906Z,98345.22
2018-07-27T19:21:24.344Z,98344.57
2018-07-27T19:23:52.687Z,98339.94
2018-07-27T19:26:22.116Z,98338.20
2018-07-27T19:28:50.545Z,98335.35
2018-07-27T19:31:18.973Z,98334.19
2018-07-27T19:33:47.332Z,98329.44
2018-07-27T19:36:15.752Z,98347.36
2018-07-27T19:38:44.118Z,98349.80
2018-07-27T19:41:12.502Z,98350.84
2018-07-27T19:44:03.492Z,98348.31
2018-07-27T19:46:31.930Z,98350.38
2018-07-27T19:49:01.600Z,98341.53
2018-07-27T19:51:30.003Z,98347.29
2018-07-27T19:53:58.304Z,98349.19
2018-07-27T19:56:26.866Z,98347.05
2018-07-27T19:58:55.298Z,98349.52
2018-07-27T20:01:23.627Z,98346.06
2018-07-27T20:03:52.539Z,98344.36
2018-07-27T20:06:21.135Z,98341.33
2018-07-27T20:12:08.170Z,98334.13
2018-07-27T20:14:36.917Z,98333.53
2018-07-27T20:17:05.327Z,98332.74
2018-07-27T20:19:33.616Z,98323.38
2018-07-27T20:22:02.275Z,98332.96
2018-07-27T20:24:31.253Z,98327.66
2018-07-27T20:26:59.653Z,98326.85
2018-07-27T20:29:28.130Z,98322.13
2018-07-27T20:31:56.686Z,98325.39
2018-07-27T20:34:25.065Z,98323.42
2018-07-27T20:36:53.586Z,98324.28
2018-07-27T20:39:23.598Z,98324.14
2018-07-27T20:41:52.386Z,98329.92
2018-07-27T20:44:20.782Z,98340.58
2018-07-27T20:46:49.101Z,98342.41
2018-07-27T20:49:17.525Z,98350.34
2018-07-27T20:51:45.840Z,98350.05
2018-07-27T20:54:14.215Z,98352.14
2018-07-27T20:56:42.570Z,98355.09
2018-07-27T20:59:10.912Z,98351.61
2018-07-27T21:01:39.394Z,98347.95
2018-07-27T21:04:07.735Z,98361.53
2018-07-27T21:06:36.070Z,98348.95
2018-07-27T21:09:06.320Z,98346.30
2018-07-27T21:11:34.607Z,98350.75
2018-07-27T21:14:02.955Z,98352.53
2018-07-27T21:16:31.438Z,98347.42
2018-07-27T21:18:59.783Z,98338.95
2018-07-27T21:21:28.297Z,98342.94
2018-07-27T21:23:56.582Z,98343.98
2018-07-27T21:26:24.924Z,98336.27
2018-07-27T21:28:53.278Z,98344.98
2018-07-27T21:31:21.591Z,98341.03
2018-07-27T21:33:49.972Z,98345.75
2018-07-27T21:36:18.411Z,98346.28
2018-07-27T21:38:46.833Z,98339.45
2018-07-27T21:41:15.131Z,98338.53
2018-07-27T21:43:43.537Z,98338.95
2018-07-27T21:46:11.851Z,98339.69
2018-07-27T21:48:41.002Z,98338.09
2018-07-27T21:51:09.318Z,98339.92
2018-07-27T21:53:37.599Z,98344.95
2018-07-27T21:56:06.351Z,98338.22
2018-07-27T21:58:34.686Z,98344.80
2018-07-27T22:01:02.991Z,98344.64
2018-07-27T22:03:31.380Z,98341.08
2018-07-27T22:05:59.655Z,98335.73
2018-07-27T22:08:28.102Z,98337.69
2018-07-27T22:10:56.389Z,98329.54
2018-07-27T22:13:24.867Z,98335.02
2018-07-27T22:15:53.272Z,98341.72
2018-07-27T22:18:21.563Z,98332.58
2018-07-27T22:20:49.980Z,98328.05
2018-07-27T22:23:18.272Z,98325.23
2018-07-27T22:25:46.550Z,98327.92
2018-07-27T22:28:14.884Z,98321.58
2018-07-27T22:30:43.199Z,98320.34
2018-07-27T22:33:11.501Z,98316.22
2018-07-27T22:35:39.775Z,98307.88
2018-07-27T22:38:08.063Z,98307.80
2018-07-27T22:40:36.364Z,98307.80
2018-07-27T22:43:05.773Z,98310.67
2018-07-27T22:45:34.075Z,98310.47
2018-07-27T22:48:04.872Z,98313.27
2018-07-27T22:50:33.132Z,98313.51
2018-07-27T22:53:01.458Z,98314.45
2018-07-27T22:55:29.750Z,98313.95
2018-07-27T22:57:58.058Z,98312.56
2018-07-27T23:00:26.331Z,98307.73
2018-07-27T23:02:54.640Z,98302.63
2018-07-27T23:05:22.980Z,98295.45
2018-07-27T23:07:51.295Z,98300.02
2018-07-27T23:10:19.574Z,98292.23
2018-07-27T23:12:47.895Z,98286.09
2018-07-27T23:15:16.188Z,98295.16
2018-07-27T23:17:44.483Z,98289.16
2018-07-27T23:20:14.691Z,98297.53
2018-07-27T23:22:43.824Z,98297.59
2018-07-27T23:25:12.139Z,98293.97
2018-07-27T23:27:40.429Z,98303.20
2018-07-27T23:30:10.864Z,98306.05
2018-07-27T23:32:39.149Z,98300.75
2018-07-27T23:35:07.543Z,98297.78
2018-07-27T23:37:35.839Z,98296.72
2018-07-27T23:40:04.728Z,98289.67
2018-07-27T23:42:33.042Z,98287.86
2018-07-27T23:45:01.330Z,98285.52
2018-07-27T23:47:29.618Z,98279.45
2018-07-27T23:49:57.900Z,98282.22
2018-07-27T23:52:26.318Z,98273.14
2018-07-27T23:54:54.618Z,98268.25
2018-07-27T23:57:22.904Z,98264.08
2018-07-27T23:59:51.228Z,98257.61
